sensor_id;sensor_type;location;lat;lon;timestamp;temperature;humidity
52181;DHT22;38158;53.338;6.514;2023-04-25T00:02:21;6.70;99.90
52181;DHT22;38158;53.338;6.514;2023-04-25T00:04:47;6.60;99.90
52181;DHT22;38158;53.338;6.514;2023-04-25T00:07:15;6.60;99.90
52181;DHT22;38158;53.338;6.514;2023-04-25T00:09:41;6.60;99.90
52181;DHT22;38158;53.338;6.514;2023-04-25T00:12:06;6.60;99.90
52181;DHT22;38158;53.338;6.514;2023-04-25T00:14:32;6.40;99.90
52181;DHT22;38158;53.338;6.514;2023-04-25T00:17:01;6.30;99.90
52181;DHT22;38158;53.338;6.514;2023-04-25T00:19:28;6.10;99.90
52181;DHT22;38158;53.338;6.514;2023-04-25T00:21:55;6.10;99.90
52181;DHT22;38158;53.338;6.514;2023-04-25T00:24:20;6.10;99.90
52181;DHT22;38158;53.338;6.514;2023-04-25T00:26:46;6.00;99.90
52181;DHT22;38158;53.338;6.514;2023-04-25T00:29:12;6.00;99.90
52181;DHT22;38158;53.338;6.514;2023-04-25T00:31:38;6.90;99.90
52181;DHT22;38158;53.338;6.514;2023-04-25T00:34:04;6.10;99.90
52181;DHT22;38158;53.338;6.514;2023-04-25T00:36:29;6.10;99.90
52181;DHT22;38158;53.338;6.514;2023-04-25T00:38:56;6.10;99.90
52181;DHT22;38158;53.338;6.514;2023-04-25T00:41:21;6.10;99.90
52181;DHT22;38158;53.338;6.514;2023-04-25T00:43:48;6.20;99.90
52181;DHT22;38158;53.338;6.514;2023-04-25T00:46:14;6.20;99.90
52181;DHT22;38158;53.338;6.514;2023-04-25T00:48:39;6.20;99.90
52181;DHT22;38158;53.338;6.514;2023-04-25T00:51:05;6.20;99.90
52181;DHT22;38158;53.338;6.514;2023-04-25T00:53:31;6.20;99.90
52181;DHT22;38158;53.338;6.514;2023-04-25T00:55:58;6.20;99.90
52181;DHT22;38158;53.338;6.514;2023-04-25T00:58:24;6.20;99.90
52181;DHT22;38158;53.338;6.514;2023-04-25T01:00:51;6.10;99.90
52181;DHT22;38158;53.338;6.514;2023-04-25T01:03:18;6.10;99.90
52181;DHT22;38158;53.338;6.514;2023-04-25T01:05:46;6.00;99.90
52181;DHT22;38158;53.338;6.514;2023-04-25T01:08:12;6.00;99.90
52181;DHT22;38158;53.338;6.514;2023-04-25T01:10:38;6.00;99.90
52181;DHT22;38158;53.338;6.514;2023-04-25T01:13:04;6.00;99.90
52181;DHT22;38158;53.338;6.514;2023-04-25T01:15:30;6.00;99.90
52181;DHT22;38158;53.338;6.514;2023-04-25T01:17:57;6.00;99.90
52181;DHT22;38158;53.338;6.514;2023-04-25T01:20:23;6.10;99.90
52181;DHT22;38158;53.338;6.514;2023-04-25T01:22:53;6.10;99.90
52181;DHT22;38158;53.338;6.514;2023-04-25T01:25:19;6.10;99.90
52181;DHT22;38158;53.338;6.514;2023-04-25T01:27:46;6.10;99.90
52181;DHT22;38158;53.338;6.514;2023-04-25T01:30:13;6.10;99.90
52181;DHT22;38158;53.338;6.514;2023-04-25T01:32:40;6.10;99.90
52181;DHT22;38158;53.338;6.514;2023-04-25T01:35:07;6.20;99.90
52181;DHT22;38158;53.338;6.514;2023-04-25T01:37:42;6.20;99.90
52181;DHT22;38158;53.338;6.514;2023-04-25T01:40:10;6.20;99.90
52181;DHT22;38158;53.338;6.514;2023-04-25T01:42:42;6.20;99.90
52181;DHT22;38158;53.338;6.514;2023-04-25T01:45:09;6.20;99.90
52181;DHT22;38158;53.338;6.514;2023-04-25T01:47:36;6.20;99.90
52181;DHT22;38158;53.338;6.514;2023-04-25T01:50:03;6.20;99.90
52181;DHT22;38158;53.338;6.514;2023-04-25T01:52:29;6.10;99.90
52181;DHT22;38158;53.338;6.514;2023-04-25T01:54:57;6.30;99.90
52181;DHT22;38158;53.338;6.514;2023-04-25T01:57:22;6.10;99.90
52181;DHT22;38158;53.338;6.514;2023-04-25T01:59:49;6.00;99.90
52181;DHT22;38158;53.338;6.514;2023-04-25T02:02:15;5.90;99.90
52181;DHT22;38158;53.338;6.514;2023-04-25T02:04:41;5.90;99.90
52181;DHT22;38158;53.338;6.514;2023-04-25T02:07:06;5.80;99.90
52181;DHT22;38158;53.338;6.514;2023-04-25T02:09:32;5.90;99.90
52181;DHT22;38158;53.338;6.514;2023-04-25T02:11:58;5.90;99.90
52181;DHT22;38158;53.338;6.514;2023-04-25T02:14:23;5.90;99.90
52181;DHT22;38158;53.338;6.514;2023-04-25T02:16:49;5.90;99.90
52181;DHT22;38158;53.338;6.514;2023-04-25T02:19:16;6.10;99.90
52181;DHT22;38158;53.338;6.514;2023-04-25T02:21:42;5.90;99.90
52181;DHT22;38158;53.338;6.514;2023-04-25T02:24:08;6.50;99.90
52181;DHT22;38158;53.338;6.514;2023-04-25T02:26:34;5.70;99.90
52181;DHT22;38158;53.338;6.514;2023-04-25T02:28:59;5.80;99.90
52181;DHT22;38158;53.338;6.514;2023-04-25T02:31:26;5.70;99.90
52181;DHT22;38158;53.338;6.514;2023-04-25T02:33:52;5.70;99.90
52181;DHT22;38158;53.338;6.514;2023-04-25T02:36:17;5.70;99.90
52181;DHT22;38158;53.338;6.514;2023-04-25T02:38:43;5.70;99.90
52181;DHT22;38158;53.338;6.514;2023-04-25T02:41:09;5.70;99.90
52181;DHT22;38158;53.338;6.514;2023-04-25T02:43:35;5.70;99.90
52181;DHT22;38158;53.338;6.514;2023-04-25T02:46:00;5.80;99.90
52181;DHT22;38158;53.338;6.514;2023-04-25T02:48:26;5.80;99.90
52181;DHT22;38158;53.338;6.514;2023-04-25T02:50:52;5.90;99.90
52181;DHT22;38158;53.338;6.514;2023-04-25T02:53:17;5.90;99.90
52181;DHT22;38158;53.338;6.514;2023-04-25T02:55:43;5.90;99.90
52181;DHT22;38158;53.338;6.514;2023-04-25T02:58:09;5.90;99.90
52181;DHT22;38158;53.338;6.514;2023-04-25T03:00:35;5.80;99.90
52181;DHT22;38158;53.338;6.514;2023-04-25T03:03:01;5.70;99.90
52181;DHT22;38158;53.338;6.514;2023-04-25T03:05:27;5.70;99.90
52181;DHT22;38158;53.338;6.514;2023-04-25T03:07:52;5.60;99.90
52181;DHT22;38158;53.338;6.514;2023-04-25T03:10:18;5.50;99.90
52181;DHT22;38158;53.338;6.514;2023-04-25T03:12:44;5.60;99.90
52181;DHT22;38158;53.338;6.514;2023-04-25T03:15:10;5.50;99.90
52181;DHT22;38158;53.338;6.514;2023-04-25T03:17:35;5.50;99.90
52181;DHT22;38158;53.338;6.514;2023-04-25T03:20:01;5.80;99.90
52181;DHT22;38158;53.338;6.514;2023-04-25T03:22:27;5.50;99.90
52181;DHT22;38158;53.338;6.514;2023-04-25T03:24:52;5.40;99.90
52181;DHT22;38158;53.338;6.514;2023-04-25T03:27:18;5.40;99.90
52181;DHT22;38158;53.338;6.514;2023-04-25T03:29:44;5.40;99.90
52181;DHT22;38158;53.338;6.514;2023-04-25T03:32:09;5.60;99.90
52181;DHT22;38158;53.338;6.514;2023-04-25T03:34:35;5.40;99.90
52181;DHT22;38158;53.338;6.514;2023-04-25T03:37:01;5.50;99.90
52181;DHT22;38158;53.338;6.514;2023-04-25T03:39:26;5.50;99.90
52181;DHT22;38158;53.338;6.514;2023-04-25T03:41:52;6.20;99.90
52181;DHT22;38158;53.338;6.514;2023-04-25T03:44:18;5.30;99.90
52181;DHT22;38158;53.338;6.514;2023-04-25T03:46:43;5.20;99.90
52181;DHT22;38158;53.338;6.514;2023-04-25T03:49:09;5.00;99.90
52181;DHT22;38158;53.338;6.514;2023-04-25T03:51:35;4.90;99.90
52181;DHT22;38158;53.338;6.514;2023-04-25T03:54:00;4.70;99.90
52181;DHT22;38158;53.338;6.514;2023-04-25T03:56:26;4.60;99.90
52181;DHT22;38158;53.338;6.514;2023-04-25T03:58:52;4.50;99.90
52181;DHT22;38158;53.338;6.514;2023-04-25T04:01:17;4.90;99.90
52181;DHT22;38158;53.338;6.514;2023-04-25T04:03:43;4.40;99.90
52181;DHT22;38158;53.338;6.514;2023-04-25T04:06:09;4.40;99.90
52181;DHT22;38158;53.338;6.514;2023-04-25T04:08:36;4.50;99.90
52181;DHT22;38158;53.338;6.514;2023-04-25T04:11:01;4.50;99.90
52181;DHT22;38158;53.338;6.514;2023-04-25T04:13:28;4.60;99.90
52181;DHT22;38158;53.338;6.514;2023-04-25T04:15:55;4.60;99.90
52181;DHT22;38158;53.338;6.514;2023-04-25T04:18:21;4.90;99.90
52181;DHT22;38158;53.338;6.514;2023-04-25T04:20:47;4.70;99.90
52181;DHT22;38158;53.338;6.514;2023-04-25T04:23:13;4.70;99.90
52181;DHT22;38158;53.338;6.514;2023-04-25T04:25:38;4.80;99.90
52181;DHT22;38158;53.338;6.514;2023-04-25T04:28:05;4.80;99.90
52181;DHT22;38158;53.338;6.514;2023-04-25T04:30:31;4.90;99.90
52181;DHT22;38158;53.338;6.514;2023-04-25T04:32:58;5.20;99.90
52181;DHT22;38158;53.338;6.514;2023-04-25T04:35:26;4.90;99.90
52181;DHT22;38158;53.338;6.514;2023-04-25T04:37:52;5.00;99.90
52181;DHT22;38158;53.338;6.514;2023-04-25T04:40:18;5.20;99.90
52181;DHT22;38158;53.338;6.514;2023-04-25T04:42:44;5.30;99.90
52181;DHT22;38158;53.338;6.514;2023-04-25T04:45:16;5.20;99.90
52181;DHT22;38158;53.338;6.514;2023-04-25T04:47:42;5.30;99.90
52181;DHT22;38158;53.338;6.514;2023-04-25T04:50:09;5.30;99.90
52181;DHT22;38158;53.338;6.514;2023-04-25T04:52:36;5.20;99.90
52181;DHT22;38158;53.338;6.514;2023-04-25T04:55:03;5.10;99.90
52181;DHT22;38158;53.338;6.514;2023-04-25T04:57:29;5.00;99.90
52181;DHT22;38158;53.338;6.514;2023-04-25T04:59:55;5.70;99.90
52181;DHT22;38158;53.338;6.514;2023-04-25T05:02:21;5.00;99.90
52181;DHT22;38158;53.338;6.514;2023-04-25T05:04:46;5.50;99.90
52181;DHT22;38158;53.338;6.514;2023-04-25T05:07:12;5.10;99.90
52181;DHT22;38158;53.338;6.514;2023-04-25T05:09:38;6.10;99.90
52181;DHT22;38158;53.338;6.514;2023-04-25T05:12:04;5.00;99.90
52181;DHT22;38158;53.338;6.514;2023-04-25T05:14:30;4.90;99.90
52181;DHT22;38158;53.338;6.514;2023-04-25T05:16:56;4.90;99.90
52181;DHT22;38158;53.338;6.514;2023-04-25T05:19:21;4.90;99.90
52181;DHT22;38158;53.338;6.514;2023-04-25T05:21:47;4.90;99.90
52181;DHT22;38158;53.338;6.514;2023-04-25T05:24:13;4.90;99.90
52181;DHT22;38158;53.338;6.514;2023-04-25T05:26:38;4.90;99.90
52181;DHT22;38158;53.338;6.514;2023-04-25T05:29:04;4.90;99.90
52181;DHT22;38158;53.338;6.514;2023-04-25T05:31:31;4.90;99.90
52181;DHT22;38158;53.338;6.514;2023-04-25T05:33:57;5.00;99.90
52181;DHT22;38158;53.338;6.514;2023-04-25T05:36:23;5.00;99.90
52181;DHT22;38158;53.338;6.514;2023-04-25T05:38:48;5.20;99.90
52181;DHT22;38158;53.338;6.514;2023-04-25T05:41:14;4.90;99.90
52181;DHT22;38158;53.338;6.514;2023-04-25T05:43:40;4.70;99.90
52181;DHT22;38158;53.338;6.514;2023-04-25T05:46:11;4.70;99.90
52181;DHT22;38158;53.338;6.514;2023-04-25T05:48:37;4.80;99.90
52181;DHT22;38158;53.338;6.514;2023-04-25T05:51:03;4.80;99.90
52181;DHT22;38158;53.338;6.514;2023-04-25T05:53:29;4.90;99.90
52181;DHT22;38158;53.338;6.514;2023-04-25T05:55:55;5.00;99.90
52181;DHT22;38158;53.338;6.514;2023-04-25T05:58:20;5.10;99.90
52181;DHT22;38158;53.338;6.514;2023-04-25T06:00:46;5.20;99.90
52181;DHT22;38158;53.338;6.514;2023-04-25T06:03:12;5.30;99.90
52181;DHT22;38158;53.338;6.514;2023-04-25T06:05:42;5.20;99.90
52181;DHT22;38158;53.338;6.514;2023-04-25T06:08:08;5.20;99.90
52181;DHT22;38158;53.338;6.514;2023-04-25T06:10:34;5.20;99.90
52181;DHT22;38158;53.338;6.514;2023-04-25T06:13:00;5.20;99.90
52181;DHT22;38158;53.338;6.514;2023-04-25T06:15:25;5.30;99.90
52181;DHT22;38158;53.338;6.514;2023-04-25T06:17:51;5.30;99.90
52181;DHT22;38158;53.338;6.514;2023-04-25T06:20:17;5.60;99.90
52181;DHT22;38158;53.338;6.514;2023-04-25T06:22:42;5.60;99.90
52181;DHT22;38158;53.338;6.514;2023-04-25T06:25:08;5.80;99.90
52181;DHT22;38158;53.338;6.514;2023-04-25T06:27:34;6.00;99.90
52181;DHT22;38158;53.338;6.514;2023-04-25T06:30:00;6.40;99.90
52181;DHT22;38158;53.338;6.514;2023-04-25T06:32:26;6.40;99.90
52181;DHT22;38158;53.338;6.514;2023-04-25T06:34:53;6.60;99.90
52181;DHT22;38158;53.338;6.514;2023-04-25T06:37:18;6.60;99.90
52181;DHT22;38158;53.338;6.514;2023-04-25T06:39:44;6.60;99.90
52181;DHT22;38158;53.338;6.514;2023-04-25T06:42:10;6.70;99.90
52181;DHT22;38158;53.338;6.514;2023-04-25T06:44:36;6.50;99.90
52181;DHT22;38158;53.338;6.514;2023-04-25T06:47:01;6.20;99.90
52181;DHT22;38158;53.338;6.514;2023-04-25T06:49:27;6.00;99.90
52181;DHT22;38158;53.338;6.514;2023-04-25T06:51:53;5.90;99.90
52181;DHT22;38158;53.338;6.514;2023-04-25T06:54:19;6.00;99.90
52181;DHT22;38158;53.338;6.514;2023-04-25T06:56:44;6.00;99.90
52181;DHT22;38158;53.338;6.514;2023-04-25T06:59:10;6.10;99.90
52181;DHT22;38158;53.338;6.514;2023-04-25T07:01:36;6.20;99.90
52181;DHT22;38158;53.338;6.514;2023-04-25T07:04:01;6.30;99.90
52181;DHT22;38158;53.338;6.514;2023-04-25T07:06:27;6.40;99.90
52181;DHT22;38158;53.338;6.514;2023-04-25T07:08:53;6.60;99.90
52181;DHT22;38158;53.338;6.514;2023-04-25T07:11:19;6.80;99.90
52181;DHT22;38158;53.338;6.514;2023-04-25T07:13:45;6.80;99.90
52181;DHT22;38158;53.338;6.514;2023-04-25T07:16:11;7.00;99.90
52181;DHT22;38158;53.338;6.514;2023-04-25T07:18:36;6.80;99.90
52181;DHT22;38158;53.338;6.514;2023-04-25T07:21:02;6.90;99.90
52181;DHT22;38158;53.338;6.514;2023-04-25T07:23:28;6.90;99.90
52181;DHT22;38158;53.338;6.514;2023-04-25T07:25:53;6.90;99.90
52181;DHT22;38158;53.338;6.514;2023-04-25T07:28:19;6.80;99.90
52181;DHT22;38158;53.338;6.514;2023-04-25T07:30:45;6.70;99.90
52181;DHT22;38158;53.338;6.514;2023-04-25T07:33:11;6.70;99.90
52181;DHT22;38158;53.338;6.514;2023-04-25T07:35:37;6.60;99.90
52181;DHT22;38158;53.338;6.514;2023-04-25T07:38:02;6.60;99.90
52181;DHT22;38158;53.338;6.514;2023-04-25T07:40:29;6.60;99.90
52181;DHT22;38158;53.338;6.514;2023-04-25T07:42:55;6.60;99.90
52181;DHT22;38158;53.338;6.514;2023-04-25T07:45:21;6.70;99.90
52181;DHT22;38158;53.338;6.514;2023-04-25T07:47:46;6.80;99.90
52181;DHT22;38158;53.338;6.514;2023-04-25T07:50:12;7.00;99.90
52181;DHT22;38158;53.338;6.514;2023-04-25T07:52:38;7.30;99.90
52181;DHT22;38158;53.338;6.514;2023-04-25T07:55:04;7.50;99.90
52181;DHT22;38158;53.338;6.514;2023-04-25T07:57:29;7.50;99.90
52181;DHT22;38158;53.338;6.514;2023-04-25T07:59:55;7.40;99.90
52181;DHT22;38158;53.338;6.514;2023-04-25T08:02:21;7.10;99.90
52181;DHT22;38158;53.338;6.514;2023-04-25T08:04:46;6.80;99.90
52181;DHT22;38158;53.338;6.514;2023-04-25T08:07:14;6.60;99.90
52181;DHT22;38158;53.338;6.514;2023-04-25T08:09:40;6.30;99.90
52181;DHT22;38158;53.338;6.514;2023-04-25T08:12:06;6.20;99.90
52181;DHT22;38158;53.338;6.514;2023-04-25T08:14:32;6.10;99.90
52181;DHT22;38158;53.338;6.514;2023-04-25T08:17:02;6.10;99.90
52181;DHT22;38158;53.338;6.514;2023-04-25T08:19:29;6.40;99.90
52181;DHT22;38158;53.338;6.514;2023-04-25T08:21:56;6.30;99.90
52181;DHT22;38158;53.338;6.514;2023-04-25T08:24:22;6.30;99.90
52181;DHT22;38158;53.338;6.514;2023-04-25T08:26:48;6.40;99.90
52181;DHT22;38158;53.338;6.514;2023-04-25T08:29:14;6.50;99.90
52181;DHT22;38158;53.338;6.514;2023-04-25T08:31:40;6.60;99.90
52181;DHT22;38158;53.338;6.514;2023-04-25T08:34:05;6.70;99.90
52181;DHT22;38158;53.338;6.514;2023-04-25T08:36:32;6.90;99.90
52181;DHT22;38158;53.338;6.514;2023-04-25T08:38:58;7.10;99.90
52181;DHT22;38158;53.338;6.514;2023-04-25T08:41:24;7.40;99.90
52181;DHT22;38158;53.338;6.514;2023-04-25T08:43:51;7.80;99.90
52181;DHT22;38158;53.338;6.514;2023-04-25T08:46:19;8.00;99.90
52181;DHT22;38158;53.338;6.514;2023-04-25T08:48:46;8.20;99.90
52181;DHT22;38158;53.338;6.514;2023-04-25T08:51:21;8.60;99.90
52181;DHT22;38158;53.338;6.514;2023-04-25T08:53:51;8.70;99.90
52181;DHT22;38158;53.338;6.514;2023-04-25T08:56:17;8.90;99.90
52181;DHT22;38158;53.338;6.514;2023-04-25T08:58:50;8.80;99.90
52181;DHT22;38158;53.338;6.514;2023-04-25T09:01:17;8.60;99.90
52181;DHT22;38158;53.338;6.514;2023-04-25T09:03:44;8.50;99.90
52181;DHT22;38158;53.338;6.514;2023-04-25T09:06:11;8.40;99.90
52181;DHT22;38158;53.338;6.514;2023-04-25T09:08:37;8.50;99.90
52181;DHT22;38158;53.338;6.514;2023-04-25T09:11:06;8.40;99.90
52181;DHT22;38158;53.338;6.514;2023-04-25T09:13:32;8.20;99.90
52181;DHT22;38158;53.338;6.514;2023-04-25T09:15:58;7.90;99.90
52181;DHT22;38158;53.338;6.514;2023-04-25T09:18:30;7.80;99.90
52181;DHT22;38158;53.338;6.514;2023-04-25T09:21:09;7.70;99.90
52181;DHT22;38158;53.338;6.514;2023-04-25T09:23:45;7.60;99.90
52181;DHT22;38158;53.338;6.514;2023-04-25T09:26:16;7.70;99.90
52181;DHT22;38158;53.338;6.514;2023-04-25T09:28:45;7.80;99.90
52181;DHT22;38158;53.338;6.514;2023-04-25T09:31:11;7.80;99.90
52181;DHT22;38158;53.338;6.514;2023-04-25T09:33:37;7.90;99.90
52181;DHT22;38158;53.338;6.514;2023-04-25T09:36:10;8.10;99.90
52181;DHT22;38158;53.338;6.514;2023-04-25T09:38:44;8.30;99.90
52181;DHT22;38158;53.338;6.514;2023-04-25T09:41:10;8.50;99.90
52181;DHT22;38158;53.338;6.514;2023-04-25T09:43:37;8.70;99.90
52181;DHT22;38158;53.338;6.514;2023-04-25T09:46:04;8.80;99.90
52181;DHT22;38158;53.338;6.514;2023-04-25T09:48:33;8.90;99.90
52181;DHT22;38158;53.338;6.514;2023-04-25T09:51:12;9.10;99.90
52181;DHT22;38158;53.338;6.514;2023-04-25T09:53:43;9.10;99.90
52181;DHT22;38158;53.338;6.514;2023-04-25T09:56:12;8.90;99.90
52181;DHT22;38158;53.338;6.514;2023-04-25T09:58:39;8.20;99.90
52181;DHT22;38158;53.338;6.514;2023-04-25T10:01:07;7.20;99.90
52181;DHT22;38158;53.338;6.514;2023-04-25T10:03:35;6.40;99.90
52181;DHT22;38158;53.338;6.514;2023-04-25T10:06:03;6.00;99.90
52181;DHT22;38158;53.338;6.514;2023-04-25T10:08:35;5.90;99.90
52181;DHT22;38158;53.338;6.514;2023-04-25T10:11:03;5.90;99.90
52181;DHT22;38158;53.338;6.514;2023-04-25T10:13:30;5.90;99.90
52181;DHT22;38158;53.338;6.514;2023-04-25T10:16:03;6.00;99.90
52181;DHT22;38158;53.338;6.514;2023-04-25T10:18:30;6.20;99.90
52181;DHT22;38158;53.338;6.514;2023-04-25T10:21:00;6.60;99.90
52181;DHT22;38158;53.338;6.514;2023-04-25T10:23:27;7.10;99.90
52181;DHT22;38158;53.338;6.514;2023-04-25T10:25:55;7.60;99.90
52181;DHT22;38158;53.338;6.514;2023-04-25T10:28:21;7.90;99.90
52181;DHT22;38158;53.338;6.514;2023-04-25T10:31:07;8.10;99.90
52181;DHT22;38158;53.338;6.514;2023-04-25T10:33:37;8.10;99.90
52181;DHT22;38158;53.338;6.514;2023-04-25T10:38:36;7.30;99.90
52181;DHT22;38158;53.338;6.514;2023-04-25T10:41:04;6.80;99.90
52181;DHT22;38158;53.338;6.514;2023-04-25T10:43:35;6.60;99.90
52181;DHT22;38158;53.338;6.514;2023-04-25T10:46:24;6.60;99.90
52181;DHT22;38158;53.338;6.514;2023-04-25T10:51:23;7.40;99.90
52181;DHT22;38158;53.338;6.514;2023-04-25T10:53:59;7.80;99.90
52181;DHT22;38158;53.338;6.514;2023-04-25T10:59:08;8.30;99.90
52181;DHT22;38158;53.338;6.514;2023-04-25T11:01:55;8.50;99.90
52181;DHT22;38158;53.338;6.514;2023-04-25T11:09:28;8.70;99.90
52181;DHT22;38158;53.338;6.514;2023-04-25T11:11:58;8.80;99.90
52181;DHT22;38158;53.338;6.514;2023-04-25T11:14:25;8.90;99.90
52181;DHT22;38158;53.338;6.514;2023-04-25T11:16:59;9.00;99.90
52181;DHT22;38158;53.338;6.514;2023-04-25T11:19:26;9.10;99.90
52181;DHT22;38158;53.338;6.514;2023-04-25T11:21:56;9.30;99.90
52181;DHT22;38158;53.338;6.514;2023-04-25T11:24:29;9.20;99.90
52181;DHT22;38158;53.338;6.514;2023-04-25T11:26:55;9.30;99.90
52181;DHT22;38158;53.338;6.514;2023-04-25T11:29:27;9.40;99.90
52181;DHT22;38158;53.338;6.514;2023-04-25T11:31:54;9.50;99.90
52181;DHT22;38158;53.338;6.514;2023-04-25T11:34:21;9.60;99.90
52181;DHT22;38158;53.338;6.514;2023-04-25T11:36:47;9.80;99.90
52181;DHT22;38158;53.338;6.514;2023-04-25T11:39:13;9.90;99.90
52181;DHT22;38158;53.338;6.514;2023-04-25T11:41:41;10.10;99.90
52181;DHT22;38158;53.338;6.514;2023-04-25T11:44:07;10.20;99.90
52181;DHT22;38158;53.338;6.514;2023-04-25T11:46:36;10.10;99.90
52181;DHT22;38158;53.338;6.514;2023-04-25T11:49:02;10.10;99.90
52181;DHT22;38158;53.338;6.514;2023-04-25T11:51:28;9.80;99.90
52181;DHT22;38158;53.338;6.514;2023-04-25T11:53:53;9.50;99.90
52181;DHT22;38158;53.338;6.514;2023-04-25T11:56:20;9.20;99.90
52181;DHT22;38158;53.338;6.514;2023-04-25T11:59:00;8.80;99.90
52181;DHT22;38158;53.338;6.514;2023-04-25T12:01:34;8.60;99.90
52181;DHT22;38158;53.338;6.514;2023-04-25T12:04:23;8.80;99.90
52181;DHT22;38158;53.338;6.514;2023-04-25T12:06:53;9.10;99.90
52181;DHT22;38158;53.338;6.514;2023-04-25T12:09:31;9.10;99.90
52181;DHT22;38158;53.338;6.514;2023-04-25T12:11:57;9.10;99.90
52181;DHT22;38158;53.338;6.514;2023-04-25T12:14:32;8.90;99.90
52181;DHT22;38158;53.338;6.514;2023-04-25T12:17:00;8.80;99.90
52181;DHT22;38158;53.338;6.514;2023-04-25T12:19:32;8.60;99.90
52181;DHT22;38158;53.338;6.514;2023-04-25T12:22:00;8.50;99.90
52181;DHT22;38158;53.338;6.514;2023-04-25T12:24:27;8.50;99.90
52181;DHT22;38158;53.338;6.514;2023-04-25T12:29:28;9.10;99.90
52181;DHT22;38158;53.338;6.514;2023-04-25T12:31:54;9.30;99.90
52181;DHT22;38158;53.338;6.514;2023-04-25T12:34:21;9.50;99.90
52181;DHT22;38158;53.338;6.514;2023-04-25T12:36:48;9.60;99.90
52181;DHT22;38158;53.338;6.514;2023-04-25T12:39:17;9.80;99.90
52181;DHT22;38158;53.338;6.514;2023-04-25T12:41:45;9.90;99.90
52181;DHT22;38158;53.338;6.514;2023-04-25T12:44:11;10.10;99.90
52181;DHT22;38158;53.338;6.514;2023-04-25T12:46:37;10.10;99.90
52181;DHT22;38158;53.338;6.514;2023-04-25T12:49:04;9.70;99.90
52181;DHT22;38158;53.338;6.514;2023-04-25T12:51:30;9.30;99.90
52181;DHT22;38158;53.338;6.514;2023-04-25T12:53:58;9.00;99.90
52181;DHT22;38158;53.338;6.514;2023-04-25T12:56:24;8.80;99.90
52181;DHT22;38158;53.338;6.514;2023-04-25T12:58:51;8.80;99.90
52181;DHT22;38158;53.338;6.514;2023-04-25T13:01:17;9.10;99.90
52181;DHT22;38158;53.338;6.514;2023-04-25T13:03:43;9.10;99.90
52181;DHT22;38158;53.338;6.514;2023-04-25T13:06:09;9.00;99.90
52181;DHT22;38158;53.338;6.514;2023-04-25T13:08:35;9.10;99.90
52181;DHT22;38158;53.338;6.514;2023-04-25T13:11:02;9.30;99.90
52181;DHT22;38158;53.338;6.514;2023-04-25T13:13:29;9.40;99.90
52181;DHT22;38158;53.338;6.514;2023-04-25T13:15:55;9.40;99.90
52181;DHT22;38158;53.338;6.514;2023-04-25T13:18:21;9.50;99.90
52181;DHT22;38158;53.338;6.514;2023-04-25T13:20:46;9.50;99.90
52181;DHT22;38158;53.338;6.514;2023-04-25T13:23:12;9.60;99.90
52181;DHT22;38158;53.338;6.514;2023-04-25T13:25:38;9.60;99.90
52181;DHT22;38158;53.338;6.514;2023-04-25T13:28:03;9.70;99.90
52181;DHT22;38158;53.338;6.514;2023-04-25T13:30:30;9.70;99.90
52181;DHT22;38158;53.338;6.514;2023-04-25T13:32:55;9.80;99.90
52181;DHT22;38158;53.338;6.514;2023-04-25T13:35:23;9.70;99.90
52181;DHT22;38158;53.338;6.514;2023-04-25T13:37:48;9.60;99.90
52181;DHT22;38158;53.338;6.514;2023-04-25T13:40:15;9.60;99.90
52181;DHT22;38158;53.338;6.514;2023-04-25T13:42:41;9.70;99.90
52181;DHT22;38158;53.338;6.514;2023-04-25T13:45:09;9.60;99.90
52181;DHT22;38158;53.338;6.514;2023-04-25T13:47:35;9.50;99.90
52181;DHT22;38158;53.338;6.514;2023-04-25T13:50:01;9.50;99.90
52181;DHT22;38158;53.338;6.514;2023-04-25T13:52:29;9.30;99.90
52181;DHT22;38158;53.338;6.514;2023-04-25T13:54:54;9.10;99.90
52181;DHT22;38158;53.338;6.514;2023-04-25T13:57:20;9.10;99.90
52181;DHT22;38158;53.338;6.514;2023-04-25T13:59:46;9.20;99.90
52181;DHT22;38158;53.338;6.514;2023-04-25T14:02:12;8.90;99.90
52181;DHT22;38158;53.338;6.514;2023-04-25T14:04:38;8.90;99.90
52181;DHT22;38158;53.338;6.514;2023-04-25T14:07:03;8.90;99.90
52181;DHT22;38158;53.338;6.514;2023-04-25T14:09:30;8.80;99.90
52181;DHT22;38158;53.338;6.514;2023-04-25T14:11:56;8.80;99.90
52181;DHT22;38158;53.338;6.514;2023-04-25T14:14:22;8.80;99.90
52181;DHT22;38158;53.338;6.514;2023-04-25T14:16:49;8.90;99.90
52181;DHT22;38158;53.338;6.514;2023-04-25T14:19:16;8.80;99.90
52181;DHT22;38158;53.338;6.514;2023-04-25T14:21:42;8.60;99.90
52181;DHT22;38158;53.338;6.514;2023-04-25T14:24:09;8.50;99.90
52181;DHT22;38158;53.338;6.514;2023-04-25T14:26:34;8.50;99.90
52181;DHT22;38158;53.338;6.514;2023-04-25T14:29:04;8.60;99.90
52181;DHT22;38158;53.338;6.514;2023-04-25T14:31:31;8.50;99.90
52181;DHT22;38158;53.338;6.514;2023-04-25T14:33:57;8.30;99.90
52181;DHT22;38158;53.338;6.514;2023-04-25T14:36:22;8.10;99.90
52181;DHT22;38158;53.338;6.514;2023-04-25T14:38:48;8.00;99.90
52181;DHT22;38158;53.338;6.514;2023-04-25T14:41:14;8.10;99.90
52181;DHT22;38158;53.338;6.514;2023-04-25T14:43:41;8.10;99.90
52181;DHT22;38158;53.338;6.514;2023-04-25T14:46:06;8.20;99.90
52181;DHT22;38158;53.338;6.514;2023-04-25T14:48:33;8.50;99.90
52181;DHT22;38158;53.338;6.514;2023-04-25T14:50:59;8.60;99.90
52181;DHT22;38158;53.338;6.514;2023-04-25T14:53:26;8.60;99.90
52181;DHT22;38158;53.338;6.514;2023-04-25T14:55:52;8.30;99.90
52181;DHT22;38158;53.338;6.514;2023-04-25T14:58:18;8.00;99.90
52181;DHT22;38158;53.338;6.514;2023-04-25T15:00:44;8.00;99.90
52181;DHT22;38158;53.338;6.514;2023-04-25T15:03:10;8.20;99.90
52181;DHT22;38158;53.338;6.514;2023-04-25T15:05:38;8.40;99.90
52181;DHT22;38158;53.338;6.514;2023-04-25T15:08:04;8.60;99.90
52181;DHT22;38158;53.338;6.514;2023-04-25T15:10:30;8.50;99.90
52181;DHT22;38158;53.338;6.514;2023-04-25T15:12:56;8.50;99.90
52181;DHT22;38158;53.338;6.514;2023-04-25T15:15:22;8.50;99.90
52181;DHT22;38158;53.338;6.514;2023-04-25T15:17:52;8.70;99.90
52181;DHT22;38158;53.338;6.514;2023-04-25T15:20:18;8.70;99.90
52181;DHT22;38158;53.338;6.514;2023-04-25T15:22:44;8.70;99.90
52181;DHT22;38158;53.338;6.514;2023-04-25T15:25:16;8.70;99.90
52181;DHT22;38158;53.338;6.514;2023-04-25T15:27:45;8.70;99.90
52181;DHT22;38158;53.338;6.514;2023-04-25T15:30:15;8.80;99.90
52181;DHT22;38158;53.338;6.514;2023-04-25T15:32:45;8.80;99.90
52181;DHT22;38158;53.338;6.514;2023-04-25T15:35:14;8.80;99.90
52181;DHT22;38158;53.338;6.514;2023-04-25T15:37:40;8.70;99.90
52181;DHT22;38158;53.338;6.514;2023-04-25T15:40:10;8.50;99.90
52181;DHT22;38158;53.338;6.514;2023-04-25T15:42:45;8.50;99.90
52181;DHT22;38158;53.338;6.514;2023-04-25T15:45:13;8.70;99.90
52181;DHT22;38158;53.338;6.514;2023-04-25T15:47:40;8.70;99.90
52181;DHT22;38158;53.338;6.514;2023-04-25T15:50:07;8.60;99.90
52181;DHT22;38158;53.338;6.514;2023-04-25T15:52:34;8.50;99.90
52181;DHT22;38158;53.338;6.514;2023-04-25T15:55:01;8.40;99.90
52181;DHT22;38158;53.338;6.514;2023-04-25T15:57:27;8.50;99.90
52181;DHT22;38158;53.338;6.514;2023-04-25T15:59:52;8.50;99.90